sensor_id;sensor_type;location;lat;lon;timestamp;P1;durP1;ratioP1;P2;durP2;ratioP2
1591;SDS011;789;51.612;7.510;2023-04-19T00:02:20;17.87;;;16.07;;
1591;SDS011;789;51.612;7.510;2023-04-19T00:04:47;20.73;;;17.87;;
1591;SDS011;789;51.612;7.510;2023-04-19T00:07:14;21.10;;;17.17;;
1591;SDS011;789;51.612;7.510;2023-04-19T00:09:42;19.83;;;17.80;;
1591;SDS011;789;51.612;7.510;2023-04-19T00:12:09;20.20;;;18.03;;
1591;SDS011;789;51.612;7.510;2023-04-19T00:14:36;19.80;;;17.77;;
1591;SDS011;789;51.612;7.510;2023-04-19T00:17:04;19.17;;;16.80;;
1591;SDS011;789;51.612;7.510;2023-04-19T00:19:31;19.30;;;16.80;;
1591;SDS011;789;51.612;7.510;2023-04-19T00:21:58;20.80;;;18.13;;
1591;SDS011;789;51.612;7.510;2023-04-19T00:24:24;20.20;;;17.50;;
1591;SDS011;789;51.612;7.510;2023-04-19T00:26:51;19.97;;;17.53;;
1591;SDS011;789;51.612;7.510;2023-04-19T00:29:18;19.33;;;17.20;;
1591;SDS011;789;51.612;7.510;2023-04-19T00:31:45;18.90;;;17.03;;
1591;SDS011;789;51.612;7.510;2023-04-19T00:34:13;19.80;;;17.70;;
1591;SDS011;789;51.612;7.510;2023-04-19T00:36:40;18.47;;;16.67;;
1591;SDS011;789;51.612;7.510;2023-04-19T00:39:07;19.63;;;17.63;;
1591;SDS011;789;51.612;7.510;2023-04-19T00:41:33;19.27;;;17.37;;
1591;SDS011;789;51.612;7.510;2023-04-19T00:44:00;19.63;;;17.63;;
1591;SDS011;789;51.612;7.510;2023-04-19T00:46:27;18.37;;;16.37;;
1591;SDS011;789;51.612;7.510;2023-04-19T00:48:54;17.30;;;15.60;;
1591;SDS011;789;51.612;7.510;2023-04-19T00:51:23;19.30;;;16.67;;
1591;SDS011;789;51.612;7.510;2023-04-19T00:53:51;17.27;;;15.53;;
1591;SDS011;789;51.612;7.510;2023-04-19T00:56:18;17.97;;;16.17;;
1591;SDS011;789;51.612;7.510;2023-04-19T00:58:48;17.77;;;15.80;;
1591;SDS011;789;51.612;7.510;2023-04-19T01:01:14;16.27;;;14.40;;
1591;SDS011;789;51.612;7.510;2023-04-19T01:03:42;17.47;;;14.90;;
1591;SDS011;789;51.612;7.510;2023-04-19T01:06:09;14.77;;;13.27;;
1591;SDS011;789;51.612;7.510;2023-04-19T01:08:37;14.60;;;13.20;;
1591;SDS011;789;51.612;7.510;2023-04-19T01:11:04;16.40;;;13.60;;
1591;SDS011;789;51.612;7.510;2023-04-19T01:13:32;14.80;;;12.50;;
1591;SDS011;789;51.612;7.510;2023-04-19T01:15:59;14.80;;;11.53;;
1591;SDS011;789;51.612;7.510;2023-04-19T01:18:26;15.33;;;12.17;;
1591;SDS011;789;51.612;7.510;2023-04-19T01:20:56;13.33;;;12.03;;
1591;SDS011;789;51.612;7.510;2023-04-19T01:23:25;14.53;;;11.63;;
1591;SDS011;789;51.612;7.510;2023-04-19T01:25:51;11.90;;;10.70;;
1591;SDS011;789;51.612;7.510;2023-04-19T01:28:18;9.97;;;8.97;;
1591;SDS011;789;51.612;7.510;2023-04-19T01:30:46;10.43;;;9.27;;
1591;SDS011;789;51.612;7.510;2023-04-19T01:33:14;10.07;;;9.07;;
1591;SDS011;789;51.612;7.510;2023-04-19T01:35:41;12.23;;;8.73;;
1591;SDS011;789;51.612;7.510;2023-04-19T01:38:09;12.90;;;9.00;;
1591;SDS011;789;51.612;7.510;2023-04-19T01:40:37;9.20;;;8.00;;
1591;SDS011;789;51.612;7.510;2023-04-19T01:43:05;8.87;;;7.40;;
1591;SDS011;789;51.612;7.510;2023-04-19T01:45:32;8.80;;;7.90;;
1591;SDS011;789;51.612;7.510;2023-04-19T01:48:00;9.73;;;8.30;;
1591;SDS011;789;51.612;7.510;2023-04-19T01:50:28;9.27;;;8.37;;
1591;SDS011;789;51.612;7.510;2023-04-19T01:52:55;11.30;;;7.60;;
1591;SDS011;789;51.612;7.510;2023-04-19T01:55:22;9.60;;;8.60;;
1591;SDS011;789;51.612;7.510;2023-04-19T01:57:50;10.87;;;9.27;;
1591;SDS011;789;51.612;7.510;2023-04-19T02:00:18;10.53;;;9.43;;
1591;SDS011;789;51.612;7.510;2023-04-19T02:02:45;10.40;;;8.80;;
1591;SDS011;789;51.612;7.510;2023-04-19T02:05:12;10.43;;;8.17;;
1591;SDS011;789;51.612;7.510;2023-04-19T02:07:39;9.23;;;8.23;;
1591;SDS011;789;51.612;7.510;2023-04-19T02:10:08;8.30;;;7.50;;
1591;SDS011;789;51.612;7.510;2023-04-19T02:12:35;9.00;;;8.10;;
1591;SDS011;789;51.612;7.510;2023-04-19T02:15:05;8.90;;;8.00;;
1591;SDS011;789;51.612;7.510;2023-04-19T02:17:32;11.23;;;7.90;;
1591;SDS011;789;51.612;7.510;2023-04-19T02:19:59;11.93;;;7.47;;
1591;SDS011;789;51.612;7.510;2023-04-19T02:22:28;7.80;;;7.10;;
1591;SDS011;789;51.612;7.510;2023-04-19T02:24:55;9.60;;;7.53;;
1591;SDS011;789;51.612;7.510;2023-04-19T02:27:21;14.50;;;8.53;;
1591;SDS011;789;51.612;7.510;2023-04-19T02:29:48;157.63;;;24.33;;
1591;SDS011;789;51.612;7.510;2023-04-19T02:32:19;7.53;;;6.83;;
1591;SDS011;789;51.612;7.510;2023-04-19T02:34:46;7.77;;;6.97;;
1591;SDS011;789;51.612;7.510;2023-04-19T02:37:13;12.43;;;7.63;;
1591;SDS011;789;51.612;7.510;2023-04-19T02:39:39;9.40;;;7.37;;
1591;SDS011;789;51.612;7.510;2023-04-19T02:42:06;7.30;;;6.60;;
1591;SDS011;789;51.612;7.510;2023-04-19T02:44:33;8.03;;;7.03;;
1591;SDS011;789;51.612;7.510;2023-04-19T02:47:00;7.10;;;6.40;;
1591;SDS011;789;51.612;7.510;2023-04-19T02:49:29;17.03;;;7.30;;
1591;SDS011;789;51.612;7.510;2023-04-19T02:52:00;7.50;;;6.70;;
1591;SDS011;789;51.612;7.510;2023-04-19T02:54:27;7.27;;;6.50;;
1591;SDS011;789;51.612;7.510;2023-04-19T02:56:53;6.40;;;5.27;;
1591;SDS011;789;51.612;7.510;2023-04-19T02:59:21;7.20;;;6.50;;
1591;SDS011;789;51.612;7.510;2023-04-19T03:01:48;6.47;;;5.87;;
1591;SDS011;789;51.612;7.510;2023-04-19T03:04:15;7.13;;;6.43;;
1591;SDS011;789;51.612;7.510;2023-04-19T03:06:43;7.30;;;6.43;;
1591;SDS011;789;51.612;7.510;2023-04-19T03:09:10;6.67;;;6.07;;
1591;SDS011;789;51.612;7.510;2023-04-19T03:11:36;6.70;;;6.10;;
1591;SDS011;789;51.612;7.510;2023-04-19T03:14:04;10.97;;;7.17;;
1591;SDS011;789;51.612;7.510;2023-04-19T03:16:30;7.40;;;6.60;;
1591;SDS011;789;51.612;7.510;2023-04-19T03:18:57;8.83;;;7.10;;
1591;SDS011;789;51.612;7.510;2023-04-19T03:21:24;7.07;;;6.37;;
1591;SDS011;789;51.612;7.510;2023-04-19T03:23:54;9.03;;;7.20;;
1591;SDS011;789;51.612;7.510;2023-04-19T03:26:21;7.30;;;6.50;;
1591;SDS011;789;51.612;7.510;2023-04-19T03:28:48;8.70;;;7.10;;
1591;SDS011;789;51.612;7.510;2023-04-19T03:31:15;7.67;;;7.00;;
1591;SDS011;789;51.612;7.510;2023-04-19T03:33:41;18.17;;;8.57;;
1591;SDS011;789;51.612;7.510;2023-04-19T03:36:08;8.30;;;6.77;;
1591;SDS011;789;51.612;7.510;2023-04-19T03:38:35;9.67;;;7.13;;
1591;SDS011;789;51.612;7.510;2023-04-19T03:41:03;7.93;;;7.20;;
1591;SDS011;789;51.612;7.510;2023-04-19T03:43:30;7.97;;;6.93;;
1591;SDS011;789;51.612;7.510;2023-04-19T03:45:57;7.70;;;6.77;;
1591;SDS011;789;51.612;7.510;2023-04-19T03:48:23;8.03;;;7.23;;
1591;SDS011;789;51.612;7.510;2023-04-19T03:50:50;8.17;;;6.93;;
1591;SDS011;789;51.612;7.510;2023-04-19T03:53:17;9.40;;;8.00;;
1591;SDS011;789;51.612;7.510;2023-04-19T03:55:43;10.40;;;7.40;;
1591;SDS011;789;51.612;7.510;2023-04-19T03:58:12;19.43;;;8.90;;
1591;SDS011;789;51.612;7.510;2023-04-19T04:00:39;8.20;;;7.13;;
1591;SDS011;789;51.612;7.510;2023-04-19T04:03:06;10.30;;;7.57;;
1591;SDS011;789;51.612;7.510;2023-04-19T04:05:33;9.03;;;7.57;;
1591;SDS011;789;51.612;7.510;2023-04-19T04:08:00;8.40;;;7.20;;
1591;SDS011;789;51.612;7.510;2023-04-19T04:10:27;12.90;;;7.73;;
1591;SDS011;789;51.612;7.510;2023-04-19T04:12:54;8.37;;;7.47;;
1591;SDS011;789;51.612;7.510;2023-04-19T04:15:22;9.63;;;8.63;;
1591;SDS011;789;51.612;7.510;2023-04-19T04:17:49;9.33;;;8.43;;
1591;SDS011;789;51.612;7.510;2023-04-19T04:20:16;9.70;;;8.07;;
1591;SDS011;789;51.612;7.510;2023-04-19T04:22:43;9.87;;;8.10;;
1591;SDS011;789;51.612;7.510;2023-04-19T04:25:11;9.20;;;8.30;;
1591;SDS011;789;51.612;7.510;2023-04-19T04:27:39;8.20;;;7.33;;
1591;SDS011;789;51.612;7.510;2023-04-19T04:30:09;10.17;;;7.70;;
1591;SDS011;789;51.612;7.510;2023-04-19T04:32:37;9.60;;;7.90;;
1591;SDS011;789;51.612;7.510;2023-04-19T04:35:05;9.70;;;8.53;;
1591;SDS011;789;51.612;7.510;2023-04-19T04:37:33;13.23;;;8.80;;
1591;SDS011;789;51.612;7.510;2023-04-19T04:40:00;9.13;;;8.30;;
1591;SDS011;789;51.612;7.510;2023-04-19T04:42:29;11.83;;;8.83;;
1591;SDS011;789;51.612;7.510;2023-04-19T04:44:56;12.10;;;8.90;;
1591;SDS011;789;51.612;7.510;2023-04-19T04:47:29;23.23;;;9.50;;
1591;SDS011;789;51.612;7.510;2023-04-19T04:49:58;9.50;;;8.50;;
1591;SDS011;789;51.612;7.510;2023-04-19T04:52:26;11.23;;;8.23;;
1591;SDS011;789;51.612;7.510;2023-04-19T04:54:53;11.93;;;8.80;;
1591;SDS011;789;51.612;7.510;2023-04-19T04:57:20;11.50;;;8.60;;
1591;SDS011;789;51.612;7.510;2023-04-19T04:59:47;9.53;;;8.37;;
1591;SDS011;789;51.612;7.510;2023-04-19T05:02:14;10.57;;;8.70;;
1591;SDS011;789;51.612;7.510;2023-04-19T05:04:41;12.70;;;7.50;;
1591;SDS011;789;51.612;7.510;2023-04-19T05:07:09;9.90;;;8.20;;
1591;SDS011;789;51.612;7.510;2023-04-19T05:09:36;8.80;;;8.00;;
1591;SDS011;789;51.612;7.510;2023-04-19T05:12:03;7.90;;;7.03;;
1591;SDS011;789;51.612;7.510;2023-04-19T05:14:30;12.80;;;8.23;;
1591;SDS011;789;51.612;7.510;2023-04-19T05:16:57;8.60;;;6.90;;
1591;SDS011;789;51.612;7.510;2023-04-19T05:19:24;8.97;;;6.83;;
1591;SDS011;789;51.612;7.510;2023-04-19T05:21:50;8.10;;;6.80;;
1591;SDS011;789;51.612;7.510;2023-04-19T05:24:19;7.23;;;6.40;;
1591;SDS011;789;51.612;7.510;2023-04-19T05:26:46;15.00;;;6.73;;
1591;SDS011;789;51.612;7.510;2023-04-19T05:29:13;11.30;;;7.13;;
1591;SDS011;789;51.612;7.510;2023-04-19T05:31:40;8.40;;;6.17;;
1591;SDS011;789;51.612;7.510;2023-04-19T05:34:06;8.07;;;5.80;;
1591;SDS011;789;51.612;7.510;2023-04-19T05:36:33;7.87;;;5.40;;
1591;SDS011;789;51.612;7.510;2023-04-19T05:39:00;6.23;;;5.67;;
1591;SDS011;789;51.612;7.510;2023-04-19T05:41:28;7.57;;;5.27;;
1591;SDS011;789;51.612;7.510;2023-04-19T05:43:55;7.40;;;5.27;;
1591;SDS011;789;51.612;7.510;2023-04-19T05:46:22;7.90;;;6.40;;
1591;SDS011;789;51.612;7.510;2023-04-19T05:48:49;7.23;;;5.30;;
1591;SDS011;789;51.612;7.510;2023-04-19T05:51:15;7.30;;;5.83;;
1591;SDS011;789;51.612;7.510;2023-04-19T05:53:43;7.17;;;6.00;;
1591;SDS011;789;51.612;7.510;2023-04-19T05:56:11;6.80;;;5.20;;
1591;SDS011;789;51.612;7.510;2023-04-19T05:58:42;8.63;;;6.00;;
1591;SDS011;789;51.612;7.510;2023-04-19T06:01:08;8.70;;;5.83;;
1591;SDS011;789;51.612;7.510;2023-04-19T06:03:35;10.50;;;5.70;;
1591;SDS011;789;51.612;7.510;2023-04-19T06:06:02;8.03;;;5.30;;
1591;SDS011;789;51.612;7.510;2023-04-19T06:08:29;10.23;;;5.50;;
1591;SDS011;789;51.612;7.510;2023-04-19T06:10:58;6.43;;;4.87;;
1591;SDS011;789;51.612;7.510;2023-04-19T06:13:28;7.43;;;5.17;;
1591;SDS011;789;51.612;7.510;2023-04-19T06:15:56;8.50;;;5.37;;
1591;SDS011;789;51.612;7.510;2023-04-19T06:18:23;8.23;;;5.70;;
1591;SDS011;789;51.612;7.510;2023-04-19T06:20:50;11.00;;;5.93;;
1591;SDS011;789;51.612;7.510;2023-04-19T06:23:18;8.53;;;5.60;;
1591;SDS011;789;51.612;7.510;2023-04-19T06:25:48;7.90;;;5.23;;
1591;SDS011;789;51.612;7.510;2023-04-19T06:28:15;6.20;;;5.00;;
1591;SDS011;789;51.612;7.510;2023-04-19T06:30:42;6.40;;;5.60;;
1591;SDS011;789;51.612;7.510;2023-04-19T06:33:13;6.53;;;5.40;;
1591;SDS011;789;51.612;7.510;2023-04-19T06:35:39;9.23;;;5.20;;
1591;SDS011;789;51.612;7.510;2023-04-19T06:38:06;5.80;;;5.20;;
1591;SDS011;789;51.612;7.510;2023-04-19T06:40:33;7.80;;;4.83;;
1591;SDS011;789;51.612;7.510;2023-04-19T06:43:02;7.37;;;4.53;;
1591;SDS011;789;51.612;7.510;2023-04-19T06:45:29;5.10;;;4.37;;
1591;SDS011;789;51.612;7.510;2023-04-19T06:47:56;11.37;;;4.53;;
1591;SDS011;789;51.612;7.510;2023-04-19T06:50:24;7.83;;;4.23;;
1591;SDS011;789;51.612;7.510;2023-04-19T06:52:51;5.80;;;4.37;;
1591;SDS011;789;51.612;7.510;2023-04-19T06:55:19;5.20;;;4.70;;
1591;SDS011;789;51.612;7.510;2023-04-19T06:57:46;5.00;;;4.50;;
1591;SDS011;789;51.612;7.510;2023-04-19T07:00:13;6.10;;;4.60;;
1591;SDS011;789;51.612;7.510;2023-04-19T07:02:40;14.00;;;5.07;;
1591;SDS011;789;51.612;7.510;2023-04-19T07:05:07;6.50;;;4.47;;
1591;SDS011;789;51.612;7.510;2023-04-19T07:07:38;5.07;;;4.57;;
1591;SDS011;789;51.612;7.510;2023-04-19T07:10:06;5.67;;;4.87;;
1591;SDS011;789;51.612;7.510;2023-04-19T07:12:34;5.70;;;4.60;;
1591;SDS011;789;51.612;7.510;2023-04-19T07:15:01;8.90;;;5.03;;
1591;SDS011;789;51.612;7.510;2023-04-19T07:17:28;5.57;;;4.67;;
1591;SDS011;789;51.612;7.510;2023-04-19T07:19:55;6.50;;;4.80;;
1591;SDS011;789;51.612;7.510;2023-04-19T07:22:22;5.97;;;4.67;;
1591;SDS011;789;51.612;7.510;2023-04-19T07:24:50;6.50;;;4.40;;
1591;SDS011;789;51.612;7.510;2023-04-19T07:27:17;6.93;;;4.60;;
1591;SDS011;789;51.612;7.510;2023-04-19T07:29:43;5.43;;;4.30;;
1591;SDS011;789;51.612;7.510;2023-04-19T07:32:10;7.73;;;4.73;;
1591;SDS011;789;51.612;7.510;2023-04-19T07:34:38;11.60;;;4.50;;
1591;SDS011;789;51.612;7.510;2023-04-19T07:37:06;6.13;;;4.67;;
1591;SDS011;789;51.612;7.510;2023-04-19T07:39:33;5.73;;;4.27;;
1591;SDS011;789;51.612;7.510;2023-04-19T07:42:01;5.73;;;4.30;;
1591;SDS011;789;51.612;7.510;2023-04-19T07:44:29;6.70;;;4.83;;
1591;SDS011;789;51.612;7.510;2023-04-19T07:46:56;5.37;;;4.40;;
1591;SDS011;789;51.612;7.510;2023-04-19T07:49:23;5.37;;;4.67;;
1591;SDS011;789;51.612;7.510;2023-04-19T07:51:50;6.40;;;4.13;;
1591;SDS011;789;51.612;7.510;2023-04-19T07:54:19;6.80;;;4.47;;
1591;SDS011;789;51.612;7.510;2023-04-19T07:56:46;4.50;;;4.10;;
1591;SDS011;789;51.612;7.510;2023-04-19T07:59:14;7.67;;;4.23;;
1591;SDS011;789;51.612;7.510;2023-04-19T08:01:41;6.93;;;3.63;;
1591;SDS011;789;51.612;7.510;2023-04-19T08:04:08;3.50;;;3.20;;
1591;SDS011;789;51.612;7.510;2023-04-19T08:06:36;7.43;;;3.40;;
1591;SDS011;789;51.612;7.510;2023-04-19T08:09:03;4.50;;;3.30;;
1591;SDS011;789;51.612;7.510;2023-04-19T08:11:30;6.00;;;3.00;;
1591;SDS011;789;51.612;7.510;2023-04-19T08:13:57;4.97;;;3.03;;
1591;SDS011;789;51.612;7.510;2023-04-19T08:16:25;3.80;;;2.60;;
1591;SDS011;789;51.612;7.510;2023-04-19T08:18:53;3.10;;;2.73;;
1591;SDS011;789;51.612;7.510;2023-04-19T08:21:20;5.03;;;2.90;;
1591;SDS011;789;51.612;7.510;2023-04-19T08:23:47;4.53;;;2.80;;
1591;SDS011;789;51.612;7.510;2023-04-19T08:26:13;4.63;;;2.57;;
1591;SDS011;789;51.612;7.510;2023-04-19T08:28:40;7.17;;;3.57;;
1591;SDS011;789;51.612;7.510;2023-04-19T08:31:07;6.30;;;3.20;;
1591;SDS011;789;51.612;7.510;2023-04-19T08:33:36;4.17;;;2.90;;
1591;SDS011;789;51.612;7.510;2023-04-19T08:36:03;4.73;;;2.57;;
1591;SDS011;789;51.612;7.510;2023-04-19T08:38:30;6.30;;;3.10;;
1591;SDS011;789;51.612;7.510;2023-04-19T08:40:56;6.40;;;3.20;;
1591;SDS011;789;51.612;7.510;2023-04-19T08:43:24;5.63;;;3.20;;
1591;SDS011;789;51.612;7.510;2023-04-19T08:45:57;7.87;;;2.63;;
1591;SDS011;789;51.612;7.510;2023-04-19T08:48:24;5.57;;;3.03;;
1591;SDS011;789;51.612;7.510;2023-04-19T08:50:54;4.77;;;3.33;;
1591;SDS011;789;51.612;7.510;2023-04-19T08:53:23;6.40;;;2.70;;
1591;SDS011;789;51.612;7.510;2023-04-19T08:55:53;5.40;;;2.90;;
1591;SDS011;789;51.612;7.510;2023-04-19T08:58:22;4.20;;;2.90;;
1591;SDS011;789;51.612;7.510;2023-04-19T09:00:49;5.40;;;3.17;;
1591;SDS011;789;51.612;7.510;2023-04-19T09:03:17;5.53;;;3.70;;
1591;SDS011;789;51.612;7.510;2023-04-19T09:05:44;4.07;;;2.83;;
1591;SDS011;789;51.612;7.510;2023-04-19T09:08:21;4.60;;;3.80;;
1591;SDS011;789;51.612;7.510;2023-04-19T09:10:53;7.13;;;3.50;;
1591;SDS011;789;51.612;7.510;2023-04-19T09:13:21;6.67;;;4.30;;
1591;SDS011;789;51.612;7.510;2023-04-19T09:15:51;5.27;;;4.03;;
1591;SDS011;789;51.612;7.510;2023-04-19T09:18:20;6.67;;;3.67;;
1591;SDS011;789;51.612;7.510;2023-04-19T09:20:48;4.27;;;3.57;;
1591;SDS011;789;51.612;7.510;2023-04-19T09:23:22;8.27;;;4.03;;
1591;SDS011;789;51.612;7.510;2023-04-19T09:25:51;6.77;;;4.00;;
1591;SDS011;789;51.612;7.510;2023-04-19T09:28:19;3.93;;;3.63;;
1591;SDS011;789;51.612;7.510;2023-04-19T09:30:47;4.93;;;4.03;;
1591;SDS011;789;51.612;7.510;2023-04-19T09:33:21;9.73;;;4.70;;
1591;SDS011;789;51.612;7.510;2023-04-19T09:35:58;5.27;;;3.87;;
1591;SDS011;789;51.612;7.510;2023-04-19T09:38:26;4.40;;;3.13;;
1591;SDS011;789;51.612;7.510;2023-04-19T09:41:04;4.70;;;2.93;;
1591;SDS011;789;51.612;7.510;2023-04-19T09:43:32;3.20;;;2.50;;
1591;SDS011;789;51.612;7.510;2023-04-19T09:46:00;4.10;;;2.77;;
1591;SDS011;789;51.612;7.510;2023-04-19T09:48:26;8.83;;;3.43;;
1591;SDS011;789;51.612;7.510;2023-04-19T09:50:54;4.73;;;3.03;;
1591;SDS011;789;51.612;7.510;2023-04-19T09:53:24;4.80;;;3.00;;
1591;SDS011;789;51.612;7.510;2023-04-19T09:55:56;8.27;;;3.10;;
1591;SDS011;789;51.612;7.510;2023-04-19T09:58:22;5.90;;;3.23;;
1591;SDS011;789;51.612;7.510;2023-04-19T10:00:49;5.07;;;2.90;;
1591;SDS011;789;51.612;7.510;2023-04-19T10:03:17;4.40;;;2.93;;
1591;SDS011;789;51.612;7.510;2023-04-19T10:05:45;7.00;;;3.00;;
1591;SDS011;789;51.612;7.510;2023-04-19T10:08:12;4.30;;;3.40;;
1591;SDS011;789;51.612;7.510;2023-04-19T10:10:40;5.23;;;3.10;;
1591;SDS011;789;51.612;7.510;2023-04-19T10:13:11;5.63;;;3.27;;
1591;SDS011;789;51.612;7.510;2023-04-19T10:15:39;5.00;;;3.70;;
1591;SDS011;789;51.612;7.510;2023-04-19T10:18:07;6.83;;;3.90;;
1591;SDS011;789;51.612;7.510;2023-04-19T10:20:36;5.73;;;4.23;;
1591;SDS011;789;51.612;7.510;2023-04-19T10:23:07;4.73;;;3.83;;
1591;SDS011;789;51.612;7.510;2023-04-19T10:25:37;5.23;;;3.83;;
1591;SDS011;789;51.612;7.510;2023-04-19T10:28:04;4.97;;;3.67;;
1591;SDS011;789;51.612;7.510;2023-04-19T10:30:32;6.60;;;3.90;;
1591;SDS011;789;51.612;7.510;2023-04-19T10:32:59;6.50;;;4.13;;
1591;SDS011;789;51.612;7.510;2023-04-19T10:35:32;4.33;;;3.73;;
1591;SDS011;789;51.612;7.510;2023-04-19T10:38:05;4.47;;;4.07;;
1591;SDS011;789;51.612;7.510;2023-04-19T10:40:52;7.03;;;3.70;;
1591;SDS011;789;51.612;7.510;2023-04-19T10:43:25;7.10;;;3.60;;
1591;SDS011;789;51.612;7.510;2023-04-19T10:45:59;4.47;;;4.07;;
1591;SDS011;789;51.612;7.510;2023-04-19T10:48:34;4.13;;;3.70;;
1591;SDS011;789;51.612;7.510;2023-04-19T10:51:04;45.57;;;7.43;;
1591;SDS011;789;51.612;7.510;2023-04-19T10:53:43;4.67;;;3.50;;
1591;SDS011;789;51.612;7.510;2023-04-19T10:56:22;3.90;;;3.60;;
1591;SDS011;789;51.612;7.510;2023-04-19T10:59:24;5.17;;;3.93;;
1591;SDS011;789;51.612;7.510;2023-04-19T11:01:57;4.73;;;4.10;;
1591;SDS011;789;51.612;7.510;2023-04-19T11:07:28;5.30;;;4.20;;
1591;SDS011;789;51.612;7.510;2023-04-19T11:10:02;8.23;;;4.47;;
1591;SDS011;789;51.612;7.510;2023-04-19T11:12:32;10.03;;;4.87;;
1591;SDS011;789;51.612;7.510;2023-04-19T11:15:02;4.77;;;4.27;;
1591;SDS011;789;51.612;7.510;2023-04-19T11:17:34;6.30;;;4.67;;
1591;SDS011;789;51.612;7.510;2023-04-19T11:20:06;6.00;;;4.50;;
1591;SDS011;789;51.612;7.510;2023-04-19T11:22:37;6.10;;;4.60;;
1591;SDS011;789;51.612;7.510;2023-04-19T11:25:09;5.17;;;4.63;;
1591;SDS011;789;51.612;7.510;2023-04-19T11:27:37;6.53;;;4.53;;
1591;SDS011;789;51.612;7.510;2023-04-19T11:30:11;7.23;;;4.53;;
1591;SDS011;789;51.612;7.510;2023-04-19T11:32:48;5.63;;;4.50;;
1591;SDS011;789;51.612;7.510;2023-04-19T11:35:17;6.80;;;4.60;;
1591;SDS011;789;51.612;7.510;2023-04-19T11:37:45;6.87;;;5.13;;
1591;SDS011;789;51.612;7.510;2023-04-19T11:40:13;5.03;;;4.53;;
1591;SDS011;789;51.612;7.510;2023-04-19T11:42:52;5.63;;;4.80;;
1591;SDS011;789;51.612;7.510;2023-04-19T11:45:24;5.00;;;4.50;;
1591;SDS011;789;51.612;7.510;2023-04-19T11:47:54;10.63;;;5.37;;
1591;SDS011;789;51.612;7.510;2023-04-19T11:50:31;5.73;;;4.80;;
1591;SDS011;789;51.612;7.510;2023-04-19T11:53:08;4.83;;;4.43;;
1591;SDS011;789;51.612;7.510;2023-04-19T11:55:36;6.17;;;4.80;;
1591;SDS011;789;51.612;7.510;2023-04-19T11:58:07;5.80;;;5.20;;
1591;SDS011;789;51.612;7.510;2023-04-19T12:00:34;7.57;;;5.00;;
1591;SDS011;789;51.612;7.510;2023-04-19T12:03:03;5.97;;;4.40;;
1591;SDS011;789;51.612;7.510;2023-04-19T12:05:31;5.43;;;4.93;;
1591;SDS011;789;51.612;7.510;2023-04-19T12:08:02;6.07;;;5.10;;
1591;SDS011;789;51.612;7.510;2023-04-19T12:10:31;5.93;;;4.80;;
1591;SDS011;789;51.612;7.510;2023-04-19T12:12:59;5.70;;;4.40;;
1591;SDS011;789;51.612;7.510;2023-04-19T12:15:39;5.17;;;4.67;;
1591;SDS011;789;51.612;7.510;2023-04-19T12:18:09;7.27;;;5.17;;
1591;SDS011;789;51.612;7.510;2023-04-19T12:20:36;4.90;;;4.50;;
1591;SDS011;789;51.612;7.510;2023-04-19T12:23:04;10.07;;;5.00;;
1591;SDS011;789;51.612;7.510;2023-04-19T12:25:35;5.47;;;4.60;;
1591;SDS011;789;51.612;7.510;2023-04-19T12:28:03;10.13;;;4.63;;
1591;SDS011;789;51.612;7.510;2023-04-19T12:30:31;9.60;;;4.63;;
1591;SDS011;789;51.612;7.510;2023-04-19T12:32:59;4.60;;;4.20;;
1591;SDS011;789;51.612;7.510;2023-04-19T12:35:27;7.83;;;5.40;;
1591;SDS011;789;51.612;7.510;2023-04-19T12:37:55;9.30;;;5.47;;
1591;SDS011;789;51.612;7.510;2023-04-19T12:40:26;5.03;;;4.50;;
1591;SDS011;789;51.612;7.510;2023-04-19T12:42:53;9.07;;;4.70;;
1591;SDS011;789;51.612;7.510;2023-04-19T12:45:19;6.63;;;4.60;;
1591;SDS011;789;51.612;7.510;2023-04-19T12:47:47;7.27;;;4.93;;
1591;SDS011;789;51.612;7.510;2023-04-19T12:50:14;5.30;;;4.80;;
1591;SDS011;789;51.612;7.510;2023-04-19T12:52:43;6.97;;;4.40;;
1591;SDS011;789;51.612;7.510;2023-04-19T12:55:10;5.90;;;4.70;;
1591;SDS011;789;51.612;7.510;2023-04-19T12:57:37;6.80;;;4.30;;
1591;SDS011;789;51.612;7.510;2023-04-19T13:00:07;6.00;;;4.30;;
1591;SDS011;789;51.612;7.510;2023-04-19T13:02:35;4.23;;;3.80;;
1591;SDS011;789;51.612;7.510;2023-04-19T13:05:03;3.97;;;3.57;;
1591;SDS011;789;51.612;7.510;2023-04-19T13:07:32;4.33;;;3.93;;
1591;SDS011;789;51.612;7.510;2023-04-19T13:10:00;5.17;;;4.40;;
1591;SDS011;789;51.612;7.510;2023-04-19T13:12:28;4.17;;;3.77;;
1591;SDS011;789;51.612;7.510;2023-04-19T13:14:55;5.60;;;3.40;;
1591;SDS011;789;51.612;7.510;2023-04-19T13:17:22;5.57;;;3.97;;
1591;SDS011;789;51.612;7.510;2023-04-19T13:19:49;4.60;;;4.10;;
1591;SDS011;789;51.612;7.510;2023-04-19T13:22:16;4.17;;;3.77;;
1591;SDS011;789;51.612;7.510;2023-04-19T13:24:43;5.67;;;4.07;;
1591;SDS011;789;51.612;7.510;2023-04-19T13:27:11;5.37;;;4.13;;
1591;SDS011;789;51.612;7.510;2023-04-19T13:29:38;5.10;;;3.80;;
1591;SDS011;789;51.612;7.510;2023-04-19T13:32:06;3.70;;;3.40;;
1591;SDS011;789;51.612;7.510;2023-04-19T13:34:36;5.07;;;3.63;;
1591;SDS011;789;51.612;7.510;2023-04-19T13:37:03;7.23;;;3.23;;
1591;SDS011;789;51.612;7.510;2023-04-19T13:39:30;5.53;;;4.10;;
1591;SDS011;789;51.612;7.510;2023-04-19T13:41:57;6.10;;;4.03;;
1591;SDS011;789;51.612;7.510;2023-04-19T13:44:36;8.30;;;4.23;;
1591;SDS011;789;51.612;7.510;2023-04-19T13:47:02;4.23;;;3.83;;
1591;SDS011;789;51.612;7.510;2023-04-19T13:49:29;6.13;;;3.80;;
1591;SDS011;789;51.612;7.510;2023-04-19T13:51:56;4.60;;;3.97;;
1591;SDS011;789;51.612;7.510;2023-04-19T13:54:23;5.53;;;3.87;;
1591;SDS011;789;51.612;7.510;2023-04-19T13:56:50;8.20;;;3.80;;
1591;SDS011;789;51.612;7.510;2023-04-19T13:59:16;3.60;;;3.30;;
1591;SDS011;789;51.612;7.510;2023-04-19T14:01:46;6.03;;;4.03;;
1591;SDS011;789;51.612;7.510;2023-04-19T14:04:13;5.90;;;3.70;;
1591;SDS011;789;51.612;7.510;2023-04-19T14:06:39;4.63;;;3.80;;
1591;SDS011;789;51.612;7.510;2023-04-19T14:09:07;7.77;;;3.60;;
1591;SDS011;789;51.612;7.510;2023-04-19T14:11:34;4.70;;;4.17;;
1591;SDS011;789;51.612;7.510;2023-04-19T14:14:03;10.50;;;3.90;;
1591;SDS011;789;51.612;7.510;2023-04-19T14:16:30;6.20;;;3.97;;
1591;SDS011;789;51.612;7.510;2023-04-19T14:18:58;5.17;;;3.83;;
1591;SDS011;789;51.612;7.510;2023-04-19T14:21:25;5.00;;;4.50;;
1591;SDS011;789;51.612;7.510;2023-04-19T14:23:55;5.43;;;4.37;;
1591;SDS011;789;51.612;7.510;2023-04-19T14:26:22;4.90;;;4.00;;
1591;SDS011;789;51.612;7.510;2023-04-19T14:28:48;5.37;;;3.50;;
1591;SDS011;789;51.612;7.510;2023-04-19T14:31:15;5.40;;;4.40;;
1591;SDS011;789;51.612;7.510;2023-04-19T14:33:43;7.67;;;3.30;;
1591;SDS011;789;51.612;7.510;2023-04-19T14:36:12;7.03;;;4.37;;
1591;SDS011;789;51.612;7.510;2023-04-19T14:38:42;4.10;;;3.30;;
1591;SDS011;789;51.612;7.510;2023-04-19T14:41:09;4.70;;;3.70;;
1591;SDS011;789;51.612;7.510;2023-04-19T14:43:37;4.17;;;2.90;;
1591;SDS011;789;51.612;7.510;2023-04-19T14:46:04;4.20;;;3.10;;
1591;SDS011;789;51.612;7.510;2023-04-19T14:48:32;5.13;;;2.97;;
1591;SDS011;789;51.612;7.510;2023-04-19T14:50:59;4.77;;;3.50;;
1591;SDS011;789;51.612;7.510;2023-04-19T14:53:27;4.27;;;3.23;;
1591;SDS011;789;51.612;7.510;2023-04-19T14:55:54;3.30;;;3.00;;
1591;SDS011;789;51.612;7.510;2023-04-19T14:58:21;14.23;;;4.20;;
1591;SDS011;789;51.612;7.510;2023-04-19T15:00:47;7.50;;;3.80;;
1591;SDS011;789;51.612;7.510;2023-04-19T15:03:14;4.20;;;3.70;;
1591;SDS011;789;51.612;7.510;2023-04-19T15:05:41;4.10;;;3.00;;
1591;SDS011;789;51.612;7.510;2023-04-19T15:08:08;5.53;;;3.40;;
1591;SDS011;789;51.612;7.510;2023-04-19T15:10:37;5.73;;;3.57;;
1591;SDS011;789;51.612;7.510;2023-04-19T15:13:05;3.17;;;2.87;;
1591;SDS011;789;51.612;7.510;2023-04-19T15:15:31;4.10;;;2.87;;
1591;SDS011;789;51.612;7.510;2023-04-19T15:17:58;7.20;;;4.87;;
1591;SDS011;789;51.612;7.510;2023-04-19T15:20:25;4.20;;;3.43;;
1591;SDS011;789;51.612;7.510;2023-04-19T15:22:52;7.00;;;2.60;;
1591;SDS011;789;51.612;7.510;2023-04-19T15:25:19;5.43;;;3.90;;
1591;SDS011;789;51.612;7.510;2023-04-19T15:27:47;3.00;;;2.60;;
1591;SDS011;789;51.612;7.510;2023-04-19T15:30:14;4.00;;;2.90;;
1591;SDS011;789;51.612;7.510;2023-04-19T15:32:41;2.87;;;2.30;;
1591;SDS011;789;51.612;7.510;2023-04-19T15:35:08;6.20;;;3.60;;